createdAt,value
2018-08-17T00:00:37.040Z,19.71
2018-08-17T00:01:37.402Z,19.71
2018-08-17T00:02:37.751Z,19.70
2018-08-17T00:03:37.981Z,19.69
2018-08-17T00:04:38.173Z,19.68
2018-08-17T00:05:38.443Z,19.68
2018-08-17T00:06:38.823Z,19.66
2018-08-17T00:07:38.944Z,19.65
2018-08-17T00:08:39.097Z,19.65
2018-08-17T00:09:39.613Z,19.64
2018-08-17T00:10:39.726Z,19.63
2018-08-17T00:11:40.029Z,19.62
2018-08-17T00:12:40.256Z,19.61
2018-08-17T00:13:40.453Z,19.60
2018-08-17T00:14:40.640Z,19.58
2018-08-17T00:15:40.778Z,19.57
2018-08-17T00:15:50.780Z,19.29
2018-08-17T00:16:51.887Z,19.26
2018-08-17T00:17:52.377Z,19.26
2018-08-17T00:18:53.131Z,19.26
2018-08-17T00:19:53.343Z,19.25
2018-08-17T00:20:54.159Z,19.25
2018-08-17T00:21:54.402Z,19.24
2018-08-17T00:22:54.620Z,19.24
2018-08-17T00:23:54.812Z,19.23
2018-08-17T00:24:55.612Z,19.23
2018-08-17T00:25:55.929Z,19.23
2018-08-17T00:26:56.123Z,19.22
2018-08-17T00:27:56.370Z,19.22
2018-08-17T00:28:56.931Z,19.22
2018-08-17T00:29:57.722Z,19.21
2018-08-17T00:30:57.937Z,19.20
2018-08-17T00:31:58.141Z,19.20
2018-08-17T00:32:58.395Z,19.19
2018-08-17T00:33:58.801Z,19.18
2018-08-17T00:34:58.954Z,19.18
2018-08-17T00:35:59.167Z,19.17
2018-08-17T00:36:59.303Z,19.16
2018-08-17T00:37:59.518Z,19.15
2018-08-17T00:38:59.852Z,19.15
2018-08-17T00:39:58.970Z,19.14
2018-08-17T00:41:00.187Z,19.13
2018-08-17T00:42:00.378Z,19.12
2018-08-17T00:43:00.728Z,19.11
2018-08-17T00:44:00.859Z,19.10
2018-08-17T00:45:01.026Z,19.10
2018-08-17T00:46:01.262Z,19.09
2018-08-17T00:47:01.394Z,19.09
2018-08-17T00:48:01.905Z,19.08
2018-08-17T00:49:01.715Z,19.07
2018-08-17T00:50:02.848Z,19.06
2018-08-17T00:51:03.077Z,19.06
2018-08-17T00:52:03.135Z,19.05
2018-08-17T00:53:03.240Z,19.03
2018-08-17T00:54:04.091Z,19.02
2018-08-17T00:55:04.224Z,19.01
2018-08-17T00:56:04.490Z,19.00
2018-08-17T00:57:04.948Z,19.00
2018-08-17T00:58:05.008Z,18.99
2018-08-17T00:59:04.840Z,18.98
2018-08-17T01:00:06.021Z,18.97
2018-08-17T01:01:05.681Z,18.97
2018-08-17T01:02:06.907Z,18.96
2018-08-17T01:03:07.149Z,18.95
2018-08-17T01:03:55.895Z,18.83
2018-08-17T01:04:56.629Z,18.81
2018-08-17T01:05:56.781Z,18.81
2018-08-17T01:06:57.749Z,18.81
2018-08-17T01:07:57.860Z,18.80
2018-08-17T01:08:58.255Z,18.80
2018-08-17T01:09:58.669Z,18.79
2018-08-17T01:10:58.863Z,18.78
2018-08-17T01:11:59.007Z,18.78
2018-08-17T01:12:59.125Z,18.77
2018-08-17T01:13:59.895Z,18.76
2018-08-17T01:15:00.028Z,18.76
2018-08-17T01:16:00.208Z,18.76
2018-08-17T01:16:59.315Z,18.76
2018-08-17T01:18:00.421Z,18.76
2018-08-17T01:19:00.492Z,18.76
2018-08-17T01:20:00.949Z,18.75
2018-08-17T01:21:01.080Z,18.74
2018-08-17T01:22:01.226Z,18.74
2018-08-17T01:23:01.626Z,18.73
2018-08-17T01:24:01.921Z,18.72
2018-08-17T01:25:02.110Z,18.71
2018-08-17T01:26:02.323Z,18.70
2018-08-17T01:27:02.495Z,18.70
2018-08-17T01:28:02.676Z,18.68
2018-08-17T01:29:03.022Z,18.67
2018-08-17T01:30:03.893Z,18.66
2018-08-17T01:31:04.097Z,18.65
2018-08-17T01:32:04.376Z,18.64
2018-08-17T01:33:04.581Z,18.64
2018-08-17T01:34:05.411Z,18.63
2018-08-17T01:35:06.521Z,18.63
2018-08-17T01:36:06.409Z,18.63
2018-08-17T01:37:06.569Z,18.62
2018-08-17T01:38:06.811Z,18.62
2018-08-17T01:39:06.964Z,18.62
2018-08-17T01:40:06.145Z,18.61
2018-08-17T01:41:07.954Z,18.60
2018-08-17T01:42:08.121Z,18.58
2018-08-17T01:43:08.412Z,18.57
2018-08-17T01:44:09.354Z,18.56
2018-08-17T01:45:09.710Z,18.54
2018-08-17T01:46:10.598Z,18.53
2018-08-17T01:47:10.791Z,18.51
2018-08-17T01:48:11.669Z,18.49
2018-08-17T01:49:11.834Z,18.48
2018-08-17T01:49:21.897Z,18.24
2018-08-17T01:50:22.900Z,18.22
2018-08-17T01:51:23.443Z,18.21
2018-08-17T01:52:24.301Z,18.21
2018-08-17T01:53:25.186Z,18.21
2018-08-17T01:54:25.407Z,18.21
2018-08-17T01:55:26.365Z,18.21
2018-08-17T01:56:26.558Z,18.21
2018-08-17T01:57:26.791Z,18.21
2018-08-17T01:58:26.985Z,18.21
2018-08-17T01:59:27.069Z,18.21
2018-08-17T02:00:27.644Z,18.21
2018-08-17T02:01:28.587Z,18.21
2018-08-17T02:02:28.795Z,18.21
2018-08-17T02:03:28.921Z,18.21
2018-08-17T02:04:29.217Z,18.21
2018-08-17T02:05:29.443Z,18.21
2018-08-17T02:06:29.721Z,18.21
2018-08-17T02:07:29.871Z,18.21
2018-08-17T02:08:30.040Z,18.22
2018-08-17T02:09:30.393Z,18.22
2018-08-17T02:10:31.194Z,18.21
2018-08-17T02:11:31.904Z,18.22
2018-08-17T02:12:32.819Z,18.21
2018-08-17T02:13:32.898Z,18.21
2018-08-17T02:14:33.250Z,18.21
2018-08-17T02:15:32.276Z,18.21
2018-08-17T02:16:33.456Z,18.21
2018-08-17T02:17:33.578Z,18.21
2018-08-17T02:18:33.833Z,18.20
2018-08-17T02:19:34.006Z,18.20
2018-08-17T02:20:34.387Z,18.19
2018-08-17T02:21:34.617Z,18.19
2018-08-17T02:22:34.799Z,18.18
2018-08-17T02:23:35.011Z,18.17
2018-08-17T02:24:35.276Z,18.17
2018-08-17T02:25:35.422Z,18.16
2018-08-17T02:26:35.894Z,18.15
2018-08-17T02:27:34.983Z,18.14
2018-08-17T02:28:36.195Z,18.13
2018-08-17T02:29:36.332Z,18.12
2018-08-17T02:30:36.519Z,18.12
2018-08-17T02:31:36.749Z,18.12
2018-08-17T02:32:37.624Z,18.11
2018-08-17T02:33:37.754Z,18.11
2018-08-17T02:34:38.698Z,18.10
2018-08-17T02:34:48.769Z,18.05
2018-08-17T02:35:49.953Z,18.03
2018-08-17T02:36:50.189Z,18.03
2018-08-17T02:37:50.351Z,18.03
2018-08-17T02:38:51.164Z,18.03
2018-08-17T02:39:51.425Z,18.03
2018-08-17T02:40:51.647Z,18.03
2018-08-17T02:41:51.825Z,18.02
2018-08-17T02:42:52.060Z,18.02
2018-08-17T02:43:52.238Z,18.01
2018-08-17T02:44:52.880Z,18.00
2018-08-17T02:45:53.066Z,17.99
2018-08-17T02:46:53.347Z,17.98
2018-08-17T02:47:53.496Z,17.97
2018-08-17T02:48:53.666Z,17.96
2018-08-17T02:49:53.912Z,17.94
2018-08-17T02:50:54.000Z,17.92
2018-08-17T02:51:54.175Z,17.91
2018-08-17T02:52:54.405Z,17.90
2018-08-17T02:53:53.454Z,17.90
2018-08-17T02:54:54.564Z,17.89
2018-08-17T02:55:54.691Z,17.88
2018-08-17T02:56:54.914Z,17.87
2018-08-17T02:57:55.288Z,17.86
2018-08-17T02:58:54.501Z,17.86
2018-08-17T02:59:55.760Z,17.85
2018-08-17T03:00:56.622Z,17.85
2018-08-17T03:01:56.807Z,17.85
2018-08-17T03:02:56.944Z,17.84
2018-08-17T03:03:57.065Z,17.84
2018-08-17T03:04:57.313Z,17.84
2018-08-17T03:05:57.455Z,17.83
2018-08-17T03:06:57.561Z,17.82
2018-08-17T03:07:57.781Z,17.80
2018-08-17T03:08:57.988Z,17.79
2018-08-17T03:09:58.443Z,17.78
2018-08-17T03:10:58.895Z,17.77
2018-08-17T03:11:59.503Z,17.75
2018-08-17T03:12:59.872Z,17.75
2018-08-17T03:13:59.967Z,17.74
2018-08-17T03:15:00.297Z,17.74
2018-08-17T03:16:00.508Z,17.73
2018-08-17T03:16:59.977Z,17.73
2018-08-17T03:18:01.239Z,17.72
2018-08-17T03:19:01.457Z,17.71
2018-08-17T03:19:12.763Z,17.56
2018-08-17T03:20:13.580Z,17.53
2018-08-17T03:21:13.942Z,17.53
2018-08-17T03:22:14.226Z,17.53
2018-08-17T03:23:14.397Z,17.53
2018-08-17T03:24:13.523Z,17.52
2018-08-17T03:25:14.658Z,17.52
2018-08-17T03:26:14.793Z,17.52
2018-08-17T03:27:15.183Z,17.51
2018-08-17T03:28:14.499Z,17.51
2018-08-17T03:29:15.623Z,17.51
2018-08-17T03:30:15.769Z,17.50
2018-08-17T03:31:16.545Z,17.50
2018-08-17T03:32:16.779Z,17.49
2018-08-17T03:33:17.049Z,17.49
2018-08-17T03:34:17.298Z,17.48
2018-08-17T03:35:17.533Z,17.48
2018-08-17T03:36:16.600Z,17.47
2018-08-17T03:37:17.785Z,17.47
2018-08-17T03:38:17.802Z,17.47
2018-08-17T03:39:17.886Z,17.46
2018-08-17T03:40:18.166Z,17.46
2018-08-17T03:41:18.499Z,17.46
2018-08-17T03:42:18.662Z,17.46
2018-08-17T03:43:19.257Z,17.46
2018-08-17T03:44:20.083Z,17.46
2018-08-17T03:45:20.604Z,17.47
2018-08-17T03:46:20.943Z,17.48
2018-08-17T03:47:21.174Z,17.49
2018-08-17T03:48:20.267Z,17.50
2018-08-17T03:49:21.386Z,17.51
2018-08-17T03:50:20.710Z,17.52
2018-08-17T03:51:20.655Z,17.54
2018-08-17T03:52:22.237Z,17.55
2018-08-17T03:53:22.453Z,17.56
2018-08-17T03:54:22.630Z,17.58
2018-08-17T03:55:23.118Z,17.59
2018-08-17T03:56:23.556Z,17.61
2018-08-17T03:57:23.886Z,17.63
2018-08-17T03:58:25.004Z,17.64
2018-08-17T03:59:24.312Z,17.65
2018-08-17T04:00:25.234Z,17.66
2018-08-17T04:01:25.415Z,17.67
2018-08-17T04:02:25.613Z,17.68
2018-08-17T04:03:24.811Z,17.69
2018-08-17T04:04:25.955Z,17.70
2018-08-17T04:05:26.101Z,17.71
2018-08-17T04:06:26.206Z,17.71
2018-08-17T04:07:26.375Z,17.72
2018-08-17T04:07:35.232Z,17.76
2018-08-17T04:08:35.601Z,17.74
2018-08-17T04:09:36.129Z,17.73
2018-08-17T04:10:36.951Z,17.74
2018-08-17T04:11:37.792Z,17.73
2018-08-17T04:12:37.908Z,17.73
2018-08-17T04:13:38.025Z,17.74
2018-08-17T04:14:38.157Z,17.74
2018-08-17T04:15:38.507Z,17.74
2018-08-17T04:16:37.680Z,17.74
2018-08-17T04:17:37.742Z,17.74
2018-08-17T04:18:38.827Z,17.75
2018-08-17T04:19:39.245Z,17.75
2018-08-17T04:20:39.380Z,17.75
2018-08-17T04:21:38.690Z,17.76
2018-08-17T04:22:39.878Z,17.76
2018-08-17T04:23:40.604Z,17.77
2018-08-17T04:24:40.956Z,17.77
2018-08-17T04:25:41.289Z,17.77
2018-08-17T04:26:41.567Z,17.77
2018-08-17T04:27:41.699Z,17.77
2018-08-17T04:28:41.908Z,17.78
2018-08-17T04:29:42.061Z,17.78
2018-08-17T04:30:42.305Z,17.78
2018-08-17T04:31:42.531Z,17.78
2018-08-17T04:32:42.614Z,17.78
2018-08-17T04:33:42.735Z,17.79
2018-08-17T04:34:42.814Z,17.79
2018-08-17T04:35:43.188Z,17.79
2018-08-17T04:36:43.625Z,17.80
2018-08-17T04:37:43.987Z,17.80
2018-08-17T04:38:44.900Z,17.81
2018-08-17T04:39:45.385Z,17.82
2018-08-17T04:40:45.652Z,17.83
2018-08-17T04:41:45.830Z,17.84
2018-08-17T04:42:46.053Z,17.85
2018-08-17T04:43:45.225Z,17.86
2018-08-17T04:44:45.372Z,17.87
2018-08-17T04:45:47.050Z,17.88
2018-08-17T04:46:47.162Z,17.89
2018-08-17T04:47:47.409Z,17.90
2018-08-17T04:48:47.601Z,17.91
2018-08-17T04:49:47.814Z,17.92
2018-08-17T04:50:46.847Z,17.93
2018-08-17T04:51:47.924Z,17.94
2018-08-17T04:52:48.516Z,17.95
2018-08-17T04:53:48.629Z,17.95
2018-08-17T04:54:48.894Z,17.95
2018-08-17T04:55:49.187Z,17.94
2018-08-17T04:55:57.903Z,17.94
2018-08-17T04:56:58.950Z,17.92
2018-08-17T04:57:59.927Z,17.92
2018-08-17T04:58:59.456Z,17.92
2018-08-17T04:59:59.751Z,17.93
2018-08-17T05:00:59.853Z,17.94
2018-08-17T05:02:00.264Z,17.95
2018-08-17T05:03:00.411Z,17.96
2018-08-17T05:04:00.669Z,17.98
2018-08-17T05:05:00.768Z,17.99
2018-08-17T05:06:01.092Z,18.01
2018-08-17T05:07:01.975Z,18.03
2018-08-17T05:08:02.107Z,18.05
2018-08-17T05:09:02.623Z,18.06
2018-08-17T05:10:02.000Z,18.08
2018-08-17T05:11:03.144Z,18.10
2018-08-17T05:12:03.417Z,18.13
2018-08-17T05:13:03.527Z,18.14
2018-08-17T05:14:03.707Z,18.16
2018-08-17T05:15:03.179Z,18.17
2018-08-17T05:16:05.481Z,18.18
2018-08-17T05:17:04.592Z,18.20
2018-08-17T05:18:04.750Z,18.21
2018-08-17T05:19:04.964Z,18.22
2018-08-17T05:20:05.794Z,18.22
2018-08-17T05:21:06.416Z,18.23
2018-08-17T05:22:06.795Z,18.23
2018-08-17T05:23:06.906Z,18.23
2018-08-17T05:24:07.045Z,18.24
2018-08-17T05:25:07.257Z,18.24
2018-08-17T05:26:07.531Z,18.25
2018-08-17T05:27:07.639Z,18.26
2018-08-17T05:28:07.773Z,18.26
2018-08-17T05:29:07.901Z,18.28
2018-08-17T05:30:10.514Z,18.29
2018-08-17T05:31:07.239Z,18.30
2018-08-17T05:32:08.391Z,18.31
2018-08-17T05:33:09.196Z,18.32
2018-08-17T05:34:09.350Z,18.33
2018-08-17T05:35:10.458Z,18.34
2018-08-17T05:36:09.819Z,18.35
2018-08-17T05:37:10.054Z,18.36
2018-08-17T05:38:10.214Z,18.36
2018-08-17T05:39:10.336Z,18.37
2018-08-17T05:40:10.487Z,18.38
2018-08-17T05:41:10.630Z,18.39
2018-08-17T05:42:07.555Z,18.62
2018-08-17T05:43:08.659Z,18.61
2018-08-17T05:44:08.806Z,18.61
2018-08-17T05:45:09.029Z,18.61
2018-08-17T05:46:08.848Z,18.60
2018-08-17T05:47:12.488Z,18.60
2018-08-17T05:48:09.796Z,18.60
2018-08-17T05:49:11.195Z,18.59
2018-08-17T05:50:11.269Z,18.58
2018-08-17T05:51:11.833Z,18.58
2018-08-17T05:52:12.001Z,18.57
2018-08-17T05:53:12.152Z,18.56
2018-08-17T05:54:12.625Z,18.56
2018-08-17T05:55:12.956Z,18.56
2018-08-17T05:56:13.115Z,18.55
2018-08-17T05:57:13.305Z,18.55
2018-08-17T05:58:13.426Z,18.55
2018-08-17T05:59:13.637Z,18.55
2018-08-17T06:00:13.756Z,18.55
2018-08-17T06:01:14.228Z,18.55
2018-08-17T06:02:14.346Z,18.55
2018-08-17T06:03:14.594Z,18.55
2018-08-17T06:04:14.765Z,18.56
2018-08-17T06:05:16.265Z,18.57
2018-08-17T06:06:15.556Z,18.57
2018-08-17T06:07:15.627Z,18.58
2018-08-17T06:08:15.750Z,18.59
2018-08-17T06:09:15.938Z,18.60
2018-08-17T06:10:15.601Z,18.60
2018-08-17T06:11:17.593Z,18.61
2018-08-17T06:12:16.521Z,18.62
2018-08-17T06:13:17.630Z,18.63
2018-08-17T06:14:18.189Z,18.64
2018-08-17T06:15:18.400Z,18.64
2018-08-17T06:16:18.654Z,18.65
2018-08-17T06:17:18.784Z,18.65
2018-08-17T06:18:18.955Z,18.65
2018-08-17T06:19:19.387Z,18.66
2018-08-17T06:20:18.529Z,18.67
2018-08-17T06:21:19.676Z,18.69
2018-08-17T06:22:19.828Z,18.70
2018-08-17T06:23:20.057Z,18.73
2018-08-17T06:24:20.315Z,18.75
2018-08-17T06:25:20.341Z,18.77
2018-08-17T06:26:20.424Z,18.79
2018-08-17T06:27:20.538Z,18.82
2018-08-17T06:28:21.688Z,18.84
2018-08-17T06:29:20.832Z,18.85
2018-08-17T06:29:35.970Z,19.14
2018-08-17T06:30:37.046Z,19.12
2018-08-17T06:31:37.159Z,19.12
2018-08-17T06:32:37.275Z,19.13
2018-08-17T06:33:37.437Z,19.13
2018-08-17T06:34:37.560Z,19.13
2018-08-17T06:35:37.646Z,19.14
2018-08-17T06:36:37.813Z,19.16
2018-08-17T06:37:38.023Z,19.17
2018-08-17T06:38:37.317Z,19.19
2018-08-17T06:39:38.455Z,19.21
2018-08-17T06:40:38.566Z,19.22
2018-08-17T06:41:38.669Z,19.24
2018-08-17T06:42:38.893Z,19.25
2018-08-17T06:43:38.954Z,19.26
2018-08-17T06:44:39.068Z,19.27
2018-08-17T06:45:39.176Z,19.28
2018-08-17T06:46:39.505Z,19.29
2018-08-17T06:47:39.742Z,19.29
2018-08-17T06:48:39.861Z,19.30
2018-08-17T06:49:39.967Z,19.31
2018-08-17T06:50:40.394Z,19.32
2018-08-17T06:51:39.701Z,19.32
2018-08-17T06:52:40.863Z,19.32
2018-08-17T06:53:41.155Z,19.33
2018-08-17T06:54:41.783Z,19.33
2018-08-17T06:55:41.856Z,19.34
2018-08-17T06:56:41.987Z,19.34
2018-08-17T06:57:42.104Z,19.35
2018-08-17T06:58:42.413Z,19.36
2018-08-17T06:59:42.580Z,19.37
2018-08-17T07:00:42.723Z,19.39
2018-08-17T07:01:43.078Z,19.41
2018-08-17T07:02:43.457Z,19.43
2018-08-17T07:03:42.595Z,19.45
2018-08-17T07:04:43.887Z,19.48
2018-08-17T07:05:44.578Z,19.50
2018-08-17T07:06:44.823Z,19.53
2018-08-17T07:07:45.136Z,19.55
2018-08-17T07:08:45.498Z,19.57
2018-08-17T07:09:44.773Z,19.59
2018-08-17T07:10:46.283Z,19.60
2018-08-17T07:11:46.462Z,19.62
2018-08-17T07:12:46.892Z,19.64
2018-08-17T07:13:47.465Z,19.67
2018-08-17T07:14:47.819Z,19.68
2018-08-17T07:15:48.039Z,19.70
2018-08-17T07:15:58.005Z,20.07
2018-08-17T07:16:59.193Z,20.04
2018-08-17T07:17:59.520Z,20.04
2018-08-17T07:18:59.777Z,20.04
2018-08-17T07:20:00.239Z,20.05
2018-08-17T07:21:00.509Z,20.05
2018-08-17T07:22:00.651Z,20.06
2018-08-17T07:23:00.976Z,20.07
2018-08-17T07:24:01.316Z,20.08
2018-08-17T07:25:01.506Z,20.09
2018-08-17T07:26:01.823Z,20.10
2018-08-17T07:27:02.074Z,20.11
2018-08-17T07:28:02.402Z,20.12
2018-08-17T07:29:02.608Z,20.14
2018-08-17T07:30:02.993Z,20.15
2018-08-17T07:31:03.204Z,20.18
2018-08-17T07:32:03.367Z,20.19
2018-08-17T07:33:03.627Z,20.21
2018-08-17T07:34:04.058Z,20.23
2018-08-17T07:35:04.395Z,20.24
2018-08-17T07:36:04.609Z,20.25
2018-08-17T07:37:04.923Z,20.26
2018-08-17T07:38:05.454Z,20.27
2018-08-17T07:39:05.774Z,20.28
2018-08-17T07:40:06.117Z,20.29
2018-08-17T07:41:06.504Z,20.30
2018-08-17T07:42:06.950Z,20.32
2018-08-17T07:43:07.173Z,20.33
2018-08-17T07:44:08.000Z,20.35
2018-08-17T07:45:08.745Z,20.36
2018-08-17T07:46:09.056Z,20.38
2018-08-17T07:47:09.744Z,20.40
2018-08-17T07:48:09.181Z,20.42
2018-08-17T07:49:09.299Z,20.45
2018-08-17T07:50:10.709Z,20.47
2018-08-17T07:51:11.099Z,20.49
2018-08-17T07:52:11.481Z,20.51
2018-08-17T07:53:12.001Z,20.53
2018-08-17T07:54:12.335Z,20.55
2018-08-17T07:55:12.521Z,20.57
2018-08-17T07:56:12.634Z,20.59
2018-08-17T07:57:13.196Z,20.62
2018-08-17T07:58:13.373Z,20.65
2018-08-17T07:59:13.577Z,20.67
2018-08-17T08:00:13.730Z,20.70
2018-08-17T08:01:14.081Z,20.71
2018-08-17T08:01:22.821Z,20.89
2018-08-17T08:02:24.004Z,20.87
2018-08-17T08:03:24.432Z,20.87
2018-08-17T08:04:23.971Z,20.87
2018-08-17T08:05:25.207Z,20.87
2018-08-17T08:06:25.501Z,20.88
2018-08-17T08:07:25.700Z,20.88
2018-08-17T08:08:25.867Z,20.89
2018-08-17T08:09:26.123Z,20.89
2018-08-17T08:10:26.394Z,20.90
2018-08-17T08:11:26.567Z,20.92
2018-08-17T08:12:27.088Z,20.93
2018-08-17T08:13:27.274Z,20.94
2018-08-17T08:14:27.793Z,20.94
2018-08-17T08:15:27.288Z,20.94
2018-08-17T08:16:28.505Z,20.94
2018-08-17T08:17:28.747Z,20.94
2018-08-17T08:18:29.032Z,20.93
2018-08-17T08:19:29.328Z,20.93
2018-08-17T08:20:29.722Z,20.92
2018-08-17T08:21:28.862Z,20.93
2018-08-17T08:22:30.216Z,20.93
2018-08-17T08:23:30.481Z,20.93
2018-08-17T08:24:31.209Z,20.93
2018-08-17T08:25:31.383Z,20.94
2018-08-17T08:26:31.617Z,20.94
2018-08-17T08:27:32.391Z,20.95
2018-08-17T08:28:32.617Z,20.95
2018-08-17T08:29:32.771Z,20.96
2018-08-17T08:30:34.118Z,20.96
2018-08-17T08:31:33.330Z,20.96
2018-08-17T08:32:33.860Z,20.95
2018-08-17T08:33:32.955Z,20.95
2018-08-17T08:34:34.198Z,20.96
2018-08-17T08:35:34.672Z,20.97
2018-08-17T08:36:34.910Z,21.01
2018-08-17T08:37:35.487Z,21.05
2018-08-17T08:38:36.115Z,21.11
2018-08-17T08:39:36.230Z,21.18
2018-08-17T08:40:36.449Z,21.27
2018-08-17T08:41:36.619Z,21.36
2018-08-17T08:42:37.836Z,21.47
2018-08-17T08:43:37.100Z,21.58
2018-08-17T08:44:37.462Z,21.69
2018-08-17T08:45:37.770Z,21.80
2018-08-17T08:46:36.839Z,21.91
2018-08-17T08:47:38.135Z,22.02
2018-08-17T08:47:49.135Z,23.86
2018-08-17T08:48:49.372Z,23.85
2018-08-17T08:49:49.654Z,23.85
2018-08-17T08:50:50.071Z,23.85
2018-08-17T08:51:50.323Z,23.84
2018-08-17T08:52:50.738Z,23.84
2018-08-17T08:53:51.017Z,23.84
2018-08-17T08:54:51.224Z,23.84
2018-08-17T08:55:52.054Z,23.83
2018-08-17T08:56:52.489Z,23.82
2018-08-17T08:57:52.706Z,23.81
2018-08-17T08:58:52.875Z,23.79
2018-08-17T08:59:53.111Z,23.79
2018-08-17T09:00:54.044Z,23.78
2018-08-17T09:01:54.330Z,23.77
2018-08-17T09:02:55.057Z,23.76
2018-08-17T09:03:55.535Z,23.74
2018-08-17T09:04:55.702Z,23.72
2018-08-17T09:05:55.746Z,23.70
2018-08-17T09:06:55.984Z,23.68
2018-08-17T09:07:56.211Z,23.67
2018-08-17T09:08:56.364Z,23.65
2018-08-17T09:09:56.654Z,23.63
2018-08-17T09:10:56.835Z,23.61
2018-08-17T09:11:57.074Z,23.60
2018-08-17T09:12:57.482Z,23.61
2018-08-17T09:13:58.136Z,23.62
2018-08-17T09:14:58.343Z,23.63
2018-08-17T09:15:59.224Z,23.64
2018-08-17T09:16:59.529Z,23.65
2018-08-17T09:17:59.594Z,23.66
2018-08-17T09:18:59.807Z,23.67
2018-08-17T09:20:00.320Z,23.68
2018-08-17T09:21:00.523Z,23.70
2018-08-17T09:22:00.874Z,23.72
2018-08-17T09:23:01.073Z,23.76
2018-08-17T09:24:01.240Z,23.79
2018-08-17T09:25:01.475Z,23.82
2018-08-17T09:26:01.725Z,23.86
2018-08-17T09:27:02.311Z,23.89
2018-08-17T09:28:03.065Z,23.91
2018-08-17T09:29:03.385Z,23.93
2018-08-17T09:30:03.910Z,23.96
2018-08-17T09:31:03.516Z,23.99
2018-08-17T09:32:04.722Z,24.03
2018-08-17T09:33:04.981Z,24.07
2018-08-17T09:33:15.034Z,24.87
2018-08-17T09:34:16.024Z,24.84
2018-08-17T09:35:16.141Z,24.84
2018-08-17T09:36:16.335Z,24.86
2018-08-17T09:37:16.523Z,24.87
2018-08-17T09:38:16.980Z,24.90
2018-08-17T09:39:16.364Z,24.91
2018-08-17T09:40:17.885Z,24.94
2018-08-17T09:41:18.428Z,24.96
2018-08-17T09:42:18.649Z,24.99
2018-08-17T09:43:18.870Z,25.02
2018-08-17T09:44:19.348Z,25.06
2018-08-17T09:45:19.530Z,25.10
2018-08-17T09:46:19.729Z,25.14
2018-08-17T09:47:19.872Z,25.18
2018-08-17T09:48:20.044Z,25.24
2018-08-17T09:49:20.276Z,25.30
2018-08-17T09:50:20.887Z,25.37
2018-08-17T09:51:21.547Z,25.42
2018-08-17T09:52:20.607Z,25.47
2018-08-17T09:53:21.842Z,25.53
2018-08-17T09:54:22.031Z,25.58
2018-08-17T09:55:22.107Z,25.62
2018-08-17T09:56:22.375Z,25.67
2018-08-17T09:57:22.579Z,25.71
2018-08-17T09:58:22.593Z,25.75
2018-08-17T09:59:22.784Z,25.78
2018-08-17T10:00:23.220Z,25.79
2018-08-17T10:01:23.409Z,25.80
2018-08-17T10:02:23.611Z,25.81
2018-08-17T10:03:24.884Z,25.82
2018-08-17T10:04:24.401Z,25.84
2018-08-17T10:05:24.748Z,25.87
2018-08-17T10:06:23.995Z,25.91
2018-08-17T10:07:24.452Z,25.95
2018-08-17T10:08:24.504Z,25.98
2018-08-17T10:09:25.804Z,26.03
2018-08-17T10:10:26.000Z,26.07
2018-08-17T10:11:26.525Z,26.12
2018-08-17T10:12:26.746Z,26.18
2018-08-17T10:13:27.166Z,26.22
2018-08-17T10:14:27.608Z,26.26
2018-08-17T10:15:27.853Z,26.31
2018-08-17T10:16:28.124Z,26.35
2018-08-17T10:17:28.448Z,26.37
2018-08-17T10:17:36.537Z,26.83
2018-08-17T10:18:37.788Z,26.81
2018-08-17T10:19:37.960Z,26.81
2018-08-17T10:20:38.247Z,26.82
2018-08-17T10:21:37.803Z,26.82
2018-08-17T10:22:37.828Z,26.80
2018-08-17T10:23:39.043Z,26.78
2018-08-17T10:24:39.209Z,26.75
2018-08-17T10:25:39.652Z,26.73
2018-08-17T10:26:39.871Z,26.71
2018-08-17T10:27:40.404Z,26.68
2018-08-17T10:28:40.711Z,26.65
2018-08-17T10:29:40.996Z,26.62
2018-08-17T10:30:41.509Z,26.60
2018-08-17T10:31:41.716Z,26.57
2018-08-17T10:32:42.513Z,26.54
2018-08-17T10:33:42.767Z,26.50
2018-08-17T10:34:43.031Z,26.47
2018-08-17T10:35:43.511Z,26.43
2018-08-17T10:36:43.723Z,26.39
2018-08-17T10:37:43.397Z,26.36
2018-08-17T10:38:44.680Z,26.32
2018-08-17T10:39:45.155Z,26.27
2018-08-17T10:40:45.424Z,26.23
2018-08-17T10:41:44.883Z,26.19
2018-08-17T10:42:46.079Z,26.14
2018-08-17T10:43:46.390Z,26.10
2018-08-17T10:44:46.690Z,26.05
2018-08-17T10:45:46.928Z,26.01
2018-08-17T10:46:47.210Z,25.99
2018-08-17T10:47:47.722Z,25.97
2018-08-17T10:48:48.227Z,25.97
2018-08-17T10:49:47.336Z,25.97
2018-08-17T10:50:49.047Z,25.96
2018-08-17T10:51:49.333Z,25.96
2018-08-17T10:52:48.664Z,25.96
2018-08-17T10:53:50.201Z,25.95
2018-08-17T10:54:50.367Z,25.94
2018-08-17T10:55:50.766Z,25.93
2018-08-17T10:56:51.565Z,25.91
2018-08-17T10:57:51.831Z,25.90
2018-08-17T10:58:52.055Z,25.88
2018-08-17T10:59:52.224Z,25.87
2018-08-17T11:00:52.411Z,25.85
2018-08-17T11:01:52.628Z,25.84
2018-08-17T11:02:52.741Z,25.82
2018-08-17T11:03:53.045Z,25.81
2018-08-17T11:04:54.065Z,25.79
2018-08-17T11:05:54.516Z,25.78
2018-08-17T11:06:54.910Z,25.76
2018-08-17T11:07:52.553Z,25.57
2018-08-17T11:08:53.755Z,25.55
2018-08-17T11:09:54.026Z,25.55
2018-08-17T11:10:54.730Z,25.54
2018-08-17T11:11:54.981Z,25.53
2018-08-17T11:12:55.902Z,25.52
2018-08-17T11:13:56.143Z,25.50
2018-08-17T11:14:56.539Z,25.48
2018-08-17T11:15:55.888Z,25.46
2018-08-17T11:16:57.238Z,25.45
2018-08-17T11:17:56.401Z,25.43
2018-08-17T11:18:58.681Z,25.41
2018-08-17T11:19:58.214Z,25.38
2018-08-17T11:20:58.501Z,25.36
2018-08-17T11:21:58.727Z,25.34
2018-08-17T11:22:59.261Z,25.31
2018-08-17T11:23:58.425Z,25.29
2018-08-17T11:24:59.663Z,25.27
2018-08-17T11:26:00.007Z,25.25
2018-08-17T11:26:59.418Z,25.23
2018-08-17T11:28:00.610Z,25.21
2018-08-17T11:29:01.104Z,25.19
2018-08-17T11:30:01.293Z,25.18
2018-08-17T11:31:01.648Z,25.16
2018-08-17T11:32:01.881Z,25.14
2018-08-17T11:33:02.076Z,25.12
2018-08-17T11:34:02.536Z,25.11
2018-08-17T11:35:02.949Z,25.09
2018-08-17T11:36:03.158Z,25.08
2018-08-17T11:37:02.408Z,25.06
2018-08-17T11:38:03.828Z,25.05
2018-08-17T11:39:04.049Z,25.05
2018-08-17T11:40:04.288Z,25.05
2018-08-17T11:41:04.502Z,25.04
2018-08-17T11:42:04.792Z,25.05
2018-08-17T11:43:05.240Z,25.05
2018-08-17T11:44:05.509Z,25.07
2018-08-17T11:45:05.808Z,25.09
2018-08-17T11:46:06.018Z,25.12
2018-08-17T11:47:06.384Z,25.16
2018-08-17T11:48:06.643Z,25.20
2018-08-17T11:49:06.841Z,25.25
2018-08-17T11:50:07.239Z,25.30
2018-08-17T11:51:07.449Z,25.35
2018-08-17T11:52:07.739Z,25.41
2018-08-17T11:53:07.958Z,25.48
2018-08-17T11:54:08.197Z,25.54
2018-08-17T11:55:08.476Z,25.59
2018-08-17T11:56:08.750Z,25.65
2018-08-17T11:56:18.807Z,26.64
2018-08-17T11:57:19.962Z,26.62
2018-08-17T11:58:20.230Z,26.62
2018-08-17T11:59:20.449Z,26.61
2018-08-17T12:00:20.723Z,26.61
2018-08-17T12:01:20.939Z,26.62
2018-08-17T12:02:21.228Z,26.62
2018-08-17T12:03:21.415Z,26.61
2018-08-17T12:04:21.735Z,26.60
2018-08-17T12:05:22.357Z,26.59
2018-08-17T12:06:22.746Z,26.59
2018-08-17T12:07:24.513Z,26.58
2018-08-17T12:08:23.826Z,26.57
2018-08-17T12:09:23.031Z,26.57
2018-08-17T12:10:24.263Z,26.56
2018-08-17T12:11:24.468Z,26.56
2018-08-17T12:12:25.003Z,26.57
2018-08-17T12:13:25.705Z,26.57
2018-08-17T12:14:26.277Z,26.57
2018-08-17T12:15:26.502Z,26.57
2018-08-17T12:16:27.022Z,26.56
2018-08-17T12:17:27.506Z,26.56
2018-08-17T12:18:28.027Z,26.55
2018-08-17T12:19:27.416Z,26.55
2018-08-17T12:20:27.504Z,26.55
2018-08-17T12:21:28.784Z,26.55
2018-08-17T12:22:29.012Z,26.54
2018-08-17T12:23:29.244Z,26.55
2018-08-17T12:24:29.682Z,26.54
2018-08-17T12:25:29.508Z,26.53
2018-08-17T12:26:31.194Z,26.52
2018-08-17T12:27:31.385Z,26.50
2018-08-17T12:28:31.726Z,26.49
2018-08-17T12:29:32.045Z,26.49
2018-08-17T12:30:32.292Z,26.49
2018-08-17T12:31:32.612Z,26.48
2018-08-17T12:32:33.343Z,26.47
2018-08-17T12:33:33.963Z,26.45
2018-08-17T12:34:34.586Z,26.44
2018-08-17T12:35:33.786Z,26.44
2018-08-17T12:36:34.805Z,26.43
2018-08-17T12:37:35.068Z,26.42
2018-08-17T12:38:35.602Z,26.42
2018-08-17T12:39:35.917Z,26.41
2018-08-17T12:40:36.289Z,26.41
2018-08-17T12:41:36.715Z,26.41
2018-08-17T12:42:36.949Z,26.40
2018-08-17T12:43:37.128Z,26.39
2018-08-17T12:43:49.241Z,26.47
2018-08-17T12:44:49.428Z,26.45